LRSM

Details ICAO LRSM (SUJ)
Name SATU MARE
Region Romania
Timezone Europe/Bucharest (UTC+3.0)
Plans Departing 7
Arriving 14
Stats Elevation 405 ft / 123 m (AMSL)
Location 47.703277° 22.885699°
Runways 1
Magnetic Variation 5.578° E
Sunrise 2018-05-26 02:40:39 UTC / 2018-05-26 05:40:39 Local
Sunset 2018-05-26 18:13:13 UTC / 2018-05-26 21:13:13 Local
Advertisement - Login to hide

Runways

ID Width Length Bearing (true) Bearing (mag) Surface Threshold Offset Overrun Length
01 148 ft / 45 m 8,120 ft / 2,475 m 13.15° 7.57° Concrete 0 ft / 0 m 0 ft / 0 m
19 148 ft / 45 m 8,120 ft / 2,475 m 193.16° 187.58° Concrete 0 ft / 0 m 0 ft / 0 m

Map

Weather


0- 5 10 15 20 25 30 35+ Temperature / ° C

Clouds and Precipitation
Forecast for 2018-05-26 18:00 UTC. Updated 4 hours ago

Ground ~20,000 ft ~40,000 ft Winds

METAR

LRSM 262130Z AUTO 00000KT 9999 BKN240/// 18/16 Q1021

TAF

Not found

Frequencies

Tower 118.80 MHz TWR
Approach 118.80 MHz APP
Warning: Do not use this data for real-world aviation or navigation. No guarantee of current accuracy is given.